Date,TemperatureHighF,TemperatureAvgF,TemperatureLowF,DewpointHighF,DewpointAvgF,DewpointLowF,HumidityHigh,HumidityAvg,HumidityLow,PressureMaxIn,PressureMinIn,WindSpeedMaxMPH,WindSpeedAvgMPH,GustSpeedMaxMPH,PrecipitationSumIn
2013-1-1,38.7,32.6,22.7,29.6,21.4,10.3,81,64,45,29.89,29.70,14,4,21,0.00
2013-1-2,31.7,22.9,16.0,13.4,9.3,5.3,66,56,43,30.05,29.86,14,4,21,0.00
2013-1-3,25.7,17.4,8.4,9.5,1.3,-3.1,62,50,34,30.11,29.96,9,3,15,0.00
2013-1-4,39.7,29.9,20.2,23.1,18.4,9.7,77,63,40,29.96,29.79,21,5,22,0.00
2013-1-5,42.2,33.1,25.9,22.5,19.7,14.4,80,59,36,30.23,29.84,12,4,16,0.00
2013-1-6,42.5,34.0,26.3,34.2,28.3,20.7,94,80,60,30.19,29.91,16,3,19,0.00
2013-1-7,38.7,32.6,27.5,32.6,28.7,25.7,94,86,69,30.37,29.93,14,3,18,0.00
2013-1-8,46.7,37.5,27.4,33.5,29.9,25.6,96,76,48,30.35,30.23,19,5,28,0.00
2013-1-9,44.9,38.1,27.9,39.8,33.0,26.2,96,83,64,30.36,29.97,19,4,21,0.00
2013-1-10,46.8,41.1,33.6,32.6,22.4,17.5,66,48,32,30.49,30.02,16,4,21,0.00
2013-1-11,44.2,37.1,29.4,38.5,31.0,23.4,96,79,62,30.48,30.19,8,2,10,0.00
2013-1-12,48.0,43.8,39.2,45.9,42.4,38.2,96,95,92,30.21,30.09,7,2,9,0.00
2013-1-13,53.2,48.3,43.6,52.1,47.2,42.5,96,96,96,30.13,29.98,13,4,18,0.00
2013-1-14,61.4,53.5,41.2,57.1,46.2,26.2,96,79,45,30.23,29.85,16,4,20,0.00
2013-1-15,42.7,39.5,36.9,38.8,34.1,30.8,96,81,65,30.26,30.17,8,2,10,0.00
2013-1-16,39.6,36.3,34.3,36.3,34.3,31.0,96,93,73,30.20,29.75,6,2,8,0.00
2013-1-17,43.9,36.8,31.7,35.9,30.3,17.2,96,79,55,30.06,29.82,14,4,16,0.00
2013-1-18,31.7,24.3,19.7,17.1,0.8,-8.6,54,36,24,30.43,30.00,24,5,25,0.00
2013-1-19,48.6,38.6,21.2,34.6,24.1,5.9,76,57,38,30.38,29.89,27,7,39,0.00
2013-1-20,55.1,44.8,29.4,36.7,25.2,6.2,74,49,25,29.89,29.53,25,8,30,0.00
2013-1-21,32.0,27.5,23.0,24.7,7.6,0.3,92,46,27,30.08,29.74,11,3,13,0.00
2013-1-22,28.5,22.5,14.3,25.6,9.5,-3.1,93,61,32,30.04,29.70,11,3,18,0.00
2013-1-23,18.3,12.8,8.0,0.2,-6.1,-9.8,61,43,30,30.11,30.03,13,4,17,0.00
2013-1-24,19.9,12.1,4.7,-6.5,-9.6,-12.5,48,37,25,30.17,30.01,15,4,20,0.00
2013-1-25,28.9,18.0,8.7,13.2,-6.8,-11.7,74,34,19,30.25,30.02,11,3,15,0.00
2013-1-26,25.9,19.2,13.6,14.2,5.3,-6.4,85,58,30,30.18,29.96,14,4,19,0.00
2013-1-27,30.3,20.8,12.7,2.3,-0.6,-4.0,58,40,25,30.42,30.18,17,4,19,0.00
2013-1-28,35.4,26.9,16.7,32.6,11.8,-3.2,96,57,25,30.41,29.97,8,2,10,0.00
2013-1-29,36.6,34.2,31.0,34.9,33.0,30.0,96,95,92,30.18,29.97,7,2,9,0.00
2013-1-30,61.7,50.8,34.9,60.1,49.6,33.8,96,95,93,30.14,29.48,30,7,33,0.00
2013-1-31,61.2,50.1,32.8,59.5,39.3,12.2,96,70,33,29.58,28.99,30,9,41,0.00
2013-2-1,35.4,29.8,23.4,13.2,6.9,0.9,49,38,25,30.04,29.58,16,6,20,0.00
2013-2-2,28.6,23.3,22.0,14.0,2.9,0.8,55,41,37,30.10,30.02,10,4,16,0.00
2013-2-3,32.7,27.1,24.4,26.2,22.9,14.2,92,84,57,30.02,29.68,11,4,16,0.00
2013-2-4,32.9,25.7,20.6,23.3,12.4,2.7,91,60,33,29.92,29.68,17,4,21,0.00
2013-2-5,30.4,27.2,22.8,27.8,14.8,7.2,93,60,43,30.00,29.90,10,2,11,0.00
2013-2-6,41.1,32.5,26.5,31.7,22.1,5.6,95,69,40,30.24,29.88,11,3,18,0.00
2013-2-7,30.0,25.8,20.4,21.8,6.2,-1.2,72,44,27,30.49,30.24,11,3,13,0.00
2013-2-8,34.6,32.3,29.6,32.9,28.7,21.7,96,87,71,30.44,29.44,22,9,32,0.00
2013-2-9,29.9,29.0,27.6,28.9,28.0,26.5,96,96,96,29.45,29.43,2,2,2,0.00
2013-2-13,44.7,36.7,31.4,31.8,28.1,22.2,99,75,42,29.79,29.65,2,2,2,0.00
2013-2-14,42.7,35.7,30.8,34.7,30.0,24.6,100,82,50,29.98,29.67,10,2,11,0.00
2013-2-15,50.2,39.2,29.8,40.9,35.4,29.6,100,88,54,30.00,29.90,16,4,21,0.00
2013-2-16,37.5,34.9,32.8,36.9,34.7,32.5,100,99,94,29.92,29.64,16,4,18,0.00
2013-2-17,32.8,23.8,18.8,32.5,19.2,5.6,100,84,52,29.64,29.30,23,8,32,0.00
2013-2-18,33.6,23.4,15.3,8.7,5.5,2.7,62,47,32,30.13,29.61,18,6,23,0.00
2013-2-19,48.9,36.5,22.9,44.2,26.0,3.8,100,68,42,30.13,29.56,13,4,16,0.00
2013-2-20,43.5,34.7,26.5,43.5,25.3,12.7,100,71,41,29.75,29.51,18,5,20,0.00
2013-2-21,34.8,29.1,26.0,21.5,16.3,13.6,72,59,43,30.10,29.75,18,6,20,0.00
2013-2-22,38.9,33.1,28.3,30.8,25.8,20.6,82,74,64,30.33,30.10,15,4,19,0.00
2013-2-23,41.4,36.0,32.2,36.6,33.2,28.2,100,90,73,30.31,29.87,12,3,14,0.00
2013-2-24,39.9,36.2,31.1,39.8,36.2,31.0,100,100,100,29.87,29.61,18,5,20,0.00
2013-2-25,39.9,34.0,30.2,36.3,32.6,30.2,100,95,79,30.22,29.84,11,3,16,0.00
2013-2-26,45.7,35.9,26.9,37.4,32.2,26.9,100,87,60,30.31,30.12,11,3,15,0.00
2013-2-27,42.2,40.4,37.9,42.2,40.4,37.2,100,100,97,30.13,29.52,23,7,27,0.00
2013-2-28,45.5,39.2,35.5,43.5,38.8,35.4,100,98,90,29.63,29.50,7,2,9,0.00
2013-3-1,40.9,37.3,34.8,37.7,35.3,31.8,100,93,81,29.65,29.50,10,4,14,0.00
2013-3-2,43.2,37.8,31.9,33.0,30.9,28.6,95,77,61,29.65,29.60,10,3,13,0.00
2013-3-3,44.9,37.6,33.4,36.9,31.7,27.8,100,80,55,29.61,29.53,9,2,10,0.00
2013-3-4,43.0,34.7,29.4,33.4,27.4,21.9,100,77,44,29.68,29.53,17,4,22,0.00
2013-3-5,41.9,35.7,31.5,37.4,30.6,25.0,100,82,67,30.03,29.69,15,5,18,0.00
2013-3-6,41.7,37.8,34.2,38.6,36.5,34.0,100,95,81,30.07,29.98,26,8,26,0.00
2013-3-7,36.2,34.4,32.1,35.7,34.1,31.2,100,99,96,29.98,29.90,24,11,33,0.00
2013-3-8,39.3,34.5,31.8,35.9,32.1,24.2,99,92,55,30.08,29.86,23,8,28,0.00
2013-3-9,39.6,36.6,34.4,31.9,27.8,25.0,87,70,61,30.31,30.08,17,7,24,0.00
2013-3-10,44.2,37.9,33.7,33.5,29.8,26.5,91,73,51,30.38,30.30,10,4,13,0.00
2013-3-11,34.6,34.5,34.1,30.8,30.6,30.2,86,86,85,30.31,30.29,7,3,10,0.00
2013-3-12,43.5,43.3,43.1,41.3,41.1,40.9,92,92,92,30.16,30.15,10,5,16,0.00
2013-3-13,55.0,46.9,35.0,52.5,27.8,3.7,97,56,16,29.77,29.67,13,4,25,0.00
2013-3-14,41.1,33.4,24.4,17.3,5.8,-6.4,52,33,15,29.80,29.68,12,5,18,0.00
2013-3-15,43.3,31.9,21.2,28.9,12.5,6.2,80,46,23,29.85,29.63,15,6,21,0.00
2013-3-16,43.2,35.6,28.2,29.6,19.5,8.5,86,55,24,29.85,29.66,13,4,24,0.00
2013-3-17,42.4,33.1,26.5,26.2,16.2,6.5,86,54,26,30.29,29.84,16,4,20,0.00
2013-3-18,39.6,30.5,20.9,31.0,14.5,3.0,99,52,39,30.43,30.23,12,5,17,0.00
2013-3-19,39.5,35.0,29.6,39.5,35.0,29.6,100,100,98,30.23,29.50,21,9,26,0.00
2013-3-20,41.4,32.6,26.1,29.5,20.3,12.1,100,65,31,29.79,29.63,25,6,25,0.00
2013-3-21,37.2,31.0,26.0,30.6,24.6,19.4,100,79,50,29.80,29.57,9,3,13,0.00
2013-3-22,44.4,34.2,28.0,31.0,21.9,10.3,100,66,26,29.71,29.57,13,4,16,0.00
2013-3-23,45.2,35.8,27.8,22.4,15.8,10.4,72,46,25,29.74,29.60,15,6,23,0.00
2013-3-24,48.1,37.4,29.4,29.3,19.9,14.4,85,51,28,29.79,29.71,11,5,16,0.00
2013-3-25,47.8,38.6,31.7,36.9,31.1,27.1,96,76,47,29.74,29.47,16,6,21,0.00
2013-3-26,50.7,40.1,33.6,34.6,24.6,15.7,99,58,27,29.74,29.46,15,6,20,0.00
2013-3-27,54.9,41.8,29.7,34.0,20.5,11.5,77,47,19,29.82,29.70,13,4,18,0.00
2013-3-28,48.4,41.5,36.8,38.0,32.5,24.9,98,72,43,29.98,29.82,14,5,17,0.00
2013-3-29,57.7,45.6,34.4,34.6,30.9,24.6,86,60,29,30.00,29.94,11,4,16,0.00
2013-3-30,54.7,45.4,35.9,32.8,27.5,21.1,83,52,28,30.06,29.99,12,4,15,0.00
2013-3-31,61.5,45.6,29.9,40.4,25.3,8.3,91,54,13,30.09,29.74,18,5,31,0.00
2013-4-1,62.3,48.7,34.7,47.4,38.0,10.4,100,71,35,29.76,29.50,27,7,32,0.00
2013-4-2,47.1,35.4,28.6,16.7,10.1,-4.0,52,36,12,29.94,29.76,17,6,23,0.00
2013-4-3,54.6,38.3,28.7,18.7,14.5,8.3,65,40,17,30.15,29.93,20,7,25,0.00
2013-4-4,64.1,41.9,26.8,35.8,19.9,10.7,93,47,13,30.30,30.08,16,6,21,0.00
2013-4-5,66.8,46.2,37.6,44.1,36.0,25.7,100,70,32,30.08,29.66,16,6,23,0.00
2013-4-6,54.3,38.9,29.0,27.6,17.2,3.5,93,46,14,30.35,29.88,16,6,23,0.00
2013-4-7,57.7,42.5,25.9,46.5,32.6,14.8,100,74,20,30.34,30.03,26,8,34,0.00
2013-4-8,70.4,53.2,45.6,51.0,44.1,36.0,100,76,30,30.13,29.96,16,6,22,0.00
2013-4-9,81.8,54.7,43.2,58.2,47.5,40.3,100,81,25,30.12,29.85,14,5,20,0.00
2013-4-10,65.6,49.8,43.6,54.3,47.2,43.6,100,92,48,30.03,29.88,12,4,14,0.00
2013-4-11,58.0,46.6,42.5,53.1,44.5,38.1,100,93,55,30.15,29.82,12,4,14,0.00
2013-4-12,42.7,40.1,37.8,42.6,39.3,36.3,100,97,82,30.18,29.75,21,8,27,0.00
2013-4-13,58.8,42.0,37.7,48.2,40.7,37.6,100,96,50,29.95,29.74,15,6,24,0.00
2013-4-14,63.7,46.2,36.8,47.7,35.6,25.5,100,71,28,30.21,29.93,14,4,17,0.00
2013-4-15,60.4,45.5,33.0,44.8,38.9,33.0,100,81,43,30.41,30.21,13,4,17,0.00
2013-4-16,69.6,51.6,35.1,53.6,42.1,31.8,100,76,28,30.42,30.10,22,7,30,0.00
2013-4-17,70.7,57.0,43.7,55.8,43.3,25.0,100,68,19,30.34,30.07,18,6,24,0.00
2013-4-18,67.8,51.6,35.6,51.0,38.1,26.2,100,67,22,30.44,30.17,14,6,24,0.00
2013-4-19,79.1,64.2,51.9,69.3,62.1,51.1,100,94,63,30.17,29.73,23,9,32,0.00
2013-4-20,65.9,57.2,45.6,64.9,48.7,30.6,100,78,29,30.10,29.65,21,7,36,0.00
2013-4-22,40.7,40.2,39.9,38.3,37.6,36.8,92,90,88,30.64,30.58,15,7,18,0.00
2013-4-23,43.2,41.7,39.9,43.2,41.5,37.9,100,99,91,30.58,30.08,13,7,22,0.00
2013-4-24,76.7,52.9,42.1,56.9,47.7,42.1,100,86,35,30.07,29.84,20,8,33,0.00
2013-4-25,72.8,55.7,41.6,54.9,44.3,29.0,100,74,21,30.26,29.88,19,6,29,0.00
2013-4-26,63.8,49.1,39.4,48.1,43.2,38.1,100,83,42,30.43,30.26,13,4,14,0.00
2013-4-27,71.2,51.8,38.1,53.9,37.3,23.9,100,66,20,30.42,30.32,14,4,17,0.00
2013-4-28,75.0,55.3,39.5,51.8,38.9,30.5,100,62,23,30.36,30.26,17,5,23,0.00
2013-4-29,74.6,56.5,42.5,55.6,36.8,11.2,100,59,11,30.30,30.22,18,5,19,0.00
2013-4-30,70.6,47.4,36.5,49.0,37.5,25.2,100,78,19,30.35,30.27,10,3,12,0.00
2013-5-2,46.9,44.2,41.7,46.9,44.2,41.7,100,100,100,30.48,30.46,8,3,12,0.00
2013-5-3,63.8,47.7,40.3,52.5,46.2,39.3,100,95,47,30.52,30.37,12,5,14,0.00
2013-5-4,61.1,46.8,38.5,50.9,43.3,38.5,100,89,54,30.38,30.33,15,4,18,0.00
2013-5-5,66.9,53.8,38.7,52.7,45.4,38.7,100,77,40,30.33,30.28,12,5,15,0.00
2013-5-6,71.6,52.4,38.6,55.9,48.3,38.6,100,88,44,30.30,30.17,15,5,18,0.00
2013-5-7,83.9,61.0,42.9,62.9,54.3,42.7,100,82,32,30.20,30.11,16,5,18,0.00
2013-5-8,76.9,60.3,50.6,70.4,59.5,50.6,100,97,69,30.23,30.07,19,6,22,0.00
2013-5-9,71.5,59.3,55.8,69.9,59.3,55.8,100,100,94,30.06,29.89,16,3,24,0.00
2013-5-10,82.4,65.3,55.5,69.4,61.0,55.5,100,88,43,29.97,29.89,13,4,15,0.00
2013-5-11,77.7,63.3,57.2,68.3,62.2,57.1,100,97,60,29.95,29.73,25,6,26,0.00
2013-5-12,80.0,62.8,48.5,68.3,55.5,32.6,100,80,32,29.83,29.58,12,5,16,0.00
2013-5-13,72.9,53.3,42.3,39.5,33.1,23.0,85,50,17,30.02,29.83,13,4,17,0.00
2013-5-14,60.9,48.3,41.7,41.2,36.2,29.1,95,65,34,30.05,30.00,13,4,15,0.00
2013-5-17,73.9,59.4,48.9,51.2,45.2,36.1,100,64,28,30.23,30.03,10,4,13,0.00
2013-5-18,80.3,60.2,45.4,57.4,47.4,32.6,100,71,19,30.32,30.23,14,4,18,0.00
2013-5-19,77.5,60.6,49.2,58.5,53.4,47.7,100,80,38,30.36,30.25,12,4,14,0.00
2013-5-20,88.2,67.0,55.4,71.9,63.1,55.4,100,89,40,30.25,29.93,12,4,14,0.00
2013-5-21,92.7,62.2,51.6,74.4,59.5,51.6,100,93,42,30.01,29.86,13,4,23,0.00
2013-5-22,67.1,54.4,50.6,66.2,54.4,50.4,100,100,97,30.03,29.89,12,4,18,0.00
2013-5-23,81.8,71.5,64.7,76.7,70.6,64.7,100,97,80,29.93,29.85,16,7,24,0.00
2013-5-24,71.1,63.8,52.6,70.9,63.8,52.4,100,100,100,29.85,29.68,14,5,21,0.00
2013-5-25,56.8,50.0,42.1,56.7,50.0,42.1,100,100,100,29.79,29.69,13,5,17,0.00
2013-5-26,66.1,49.1,39.2,52.2,43.9,38.8,100,85,43,30.10,29.72,12,5,16,0.00
2013-5-27,80.0,58.2,42.7,52.8,41.1,24.5,100,65,13,30.18,30.07,15,4,18,0.00
2013-5-28,80.4,59.8,44.1,59.7,48.5,38.5,100,73,24,30.26,30.18,14,4,16,0.00
2013-5-29,76.8,63.0,57.1,71.3,62.7,57.1,100,99,82,30.22,30.01,11,4,17,0.00
2013-5-30,97.3,76.1,63.0,78.8,68.2,57.5,100,81,28,30.09,30.01,11,4,13,0.00
2013-5-31,103.5,81.1,65.1,75.0,64.9,54.4,100,66,23,30.10,29.96,14,4,20,0.00
2013-6-1,97.9,78.8,67.0,72.2,65.2,0.0,100,69,26,30.00,29.89,15,5,19,0.00
2013-6-2,88.8,74.3,65.3,73.2,66.8,60.5,100,81,40,29.92,29.79,22,6,26,0.00
2013-6-3,71.9,66.7,63.6,71.9,66.7,63.6,100,100,100,29.87,29.79,10,4,16,0.00
2013-6-4,73.8,61.7,51.7,64.2,49.8,39.5,100,70,35,30.10,29.82,11,4,14,0.00
2013-6-5,72.7,59.9,48.5,57.3,48.1,39.5,100,70,33,30.20,30.10,13,4,17,0.00
2013-6-6,73.1,61.7,52.9,62.0,55.7,50.1,100,83,52,30.21,30.11,16,5,19,0.00
2013-6-7,58.1,55.2,53.1,58.1,55.2,53.1,100,100,100,30.14,29.80,11,5,17,0.00
2013-6-8,54.5,54.1,53.8,54.5,54.1,53.8,100,100,100,29.80,29.75,8,3,10,0.00
2013-6-9,77.7,69.5,60.5,63.8,60.1,52.6,100,74,46,30.17,30.08,12,4,13,0.00
2013-6-10,68.2,60.8,56.1,64.4,60.4,56.1,100,99,82,30.22,30.03,13,4,17,0.00
2013-6-11,68.4,59.2,52.6,68.4,59.2,52.6,100,100,100,30.03,29.58,14,5,19,0.00
2013-6-12,70.8,59.6,53.0,65.5,58.3,53.0,100,96,63,29.82,29.57,12,4,19,0.00
2013-6-13,66.3,56.7,51.5,62.7,56.1,51.4,100,98,75,29.83,29.66,12,4,15,0.00
2013-6-14,66.5,56.5,51.4,59.8,54.6,49.7,100,94,65,29.77,29.63,16,4,18,0.00
2013-6-15,79.5,64.5,54.5,60.3,51.0,36.3,100,69,23,29.95,29.76,13,4,14,0.00
2013-6-16,79.1,65.7,52.1,66.1,55.1,44.4,100,74,32,29.95,29.75,11,4,17,0.00
2013-6-17,89.0,70.3,58.3,69.2,60.9,50.8,100,78,31,29.94,29.79,15,4,23,0.00
2013-6-18,74.4,62.2,56.2,69.9,61.4,56.0,100,97,77,29.97,29.89,10,3,13,0.00
2013-6-19,69.9,60.5,54.9,64.6,56.5,48.8,100,88,57,30.16,29.89,13,4,16,0.00
2013-6-20,76.9,64.6,52.8,66.7,57.4,48.7,100,80,44,30.27,30.16,12,4,16,0.00
2013-6-21,86.2,69.2,57.2,68.0,59.9,56.2,100,75,39,30.28,30.20,10,4,15,0.00
2013-6-22,85.5,70.0,60.9,64.4,57.8,52.0,100,68,36,30.24,30.14,12,4,17,0.00
2013-6-23,89.6,74.7,64.1,71.8,67.1,62.7,100,80,45,30.18,30.02,14,5,17,0.00
2013-6-24,95.4,78.8,66.9,77.7,62.6,0.0,100,68,37,30.04,29.88,15,4,20,0.00
2013-6-25,92.4,76.7,66.0,78.8,44.4,0.0,100,44,40,29.92,29.75,10,4,16,0.00
2013-6-26,86.4,73.1,65.1,75.8,70.7,65.1,100,93,60,29.87,29.73,10,3,11,0.00
2013-6-27,67.4,63.8,62.0,67.3,63.8,62.0,100,100,100,29.88,29.77,9,3,10,0.00
2013-6-28,75.4,69.3,63.2,75.4,69.3,63.1,100,100,100,29.78,29.54,14,5,18,0.00
2013-6-29,82.0,72.2,68.6,77.5,71.3,68.6,100,97,77,29.76,29.54,18,5,21,0.00
2013-6-30,84.1,73.3,68.9,78.5,72.1,68.8,100,96,73,29.97,29.75,13,5,17,0.00
2013-7-1,82.2,73.2,69.4,80.1,73.0,69.4,100,100,90,30.11,29.96,15,4,22,0.00
2013-7-2,81.4,71.3,60.9,80.2,71.0,60.9,100,99,89,30.21,30.10,9,4,16,0.00
2013-7-3,89.5,73.8,61.2,78.8,71.2,61.2,100,93,63,30.22,30.15,15,4,17,0.00
2013-7-4,94.1,80.6,71.4,81.7,74.9,67.8,100,85,44,30.21,30.11,12,5,15,0.00
2013-7-5,95.2,81.8,72.8,79.8,74.5,66.4,100,82,45,30.17,30.05,10,5,17,0.00
2013-7-6,93.8,81.2,72.8,80.5,74.5,68.1,100,83,46,30.08,29.98,10,4,12,0.00
2013-7-7,91.8,77.8,69.7,78.3,72.0,65.6,100,85,46,30.03,29.92,12,3,13,0.00
2013-7-8,86.9,73.2,65.1,82.2,72.3,65.1,100,97,76,30.07,29.92,12,3,14,0.00
2013-7-9,71.6,67.2,64.9,71.4,67.2,64.8,100,100,100,30.12,30.05,8,3,10,0.00
2013-7-10,85.5,74.2,66.1,82.6,73.6,66.1,100,98,81,30.09,29.82,14,4,19,0.00
2013-7-11,78.8,74.3,70.4,78.2,74.2,70.4,100,100,99,29.92,29.79,9,3,12,0.00
2013-7-12,71.4,67.3,64.2,71.3,67.1,64.2,100,99,94,30.20,29.92,10,4,16,0.00
2013-7-13,75.3,67.5,63.3,75.3,67.5,63.1,100,100,100,30.32,30.20,10,3,11,0.00
2013-7-14,87.6,75.2,67.4,82.8,74.5,67.4,100,98,76,30.31,30.20,11,4,14,0.00
2013-7-15,89.9,78.1,70.5,81.4,72.5,62.7,100,85,46,30.20,30.10,10,3,12,0.00
2013-7-16,90.0,77.3,69.7,75.8,70.9,65.7,100,83,47,30.17,30.10,12,3,12,0.00
2013-7-17,91.7,78.1,67.1,76.2,70.5,65.2,100,80,47,30.19,30.02,12,4,16,0.00
2013-7-18,88.0,78.6,73.3,80.2,74.2,66.7,100,88,56,30.03,29.96,13,5,16,0.00
2013-7-19,98.0,82.8,74.2,83.4,75.6,66.5,100,83,37,29.96,29.76,10,4,20,0.00
2013-7-20,91.3,78.5,73.3,82.8,77.7,73.3,100,98,69,29.81,29.72,10,4,16,0.00
2013-7-21,80.4,72.7,67.1,76.3,69.3,61.5,100,90,57,30.01,29.81,12,4,16,0.00
2013-7-22,80.9,71.2,64.6,75.7,70.2,64.6,100,97,75,30.02,29.90,12,4,13,0.00
2013-7-23,84.3,73.1,67.7,82.8,72.8,67.7,100,99,93,29.90,29.55,13,4,15,0.00
2013-7-24,88.3,75.8,68.0,81.2,72.8,64.1,100,91,52,29.93,29.59,9,3,13,0.00
2013-7-25,67.8,62.5,60.4,65.1,61.4,58.7,100,96,83,30.09,29.94,11,5,16,0.00
2013-7-26,66.8,63.5,61.1,66.8,63.5,61.1,100,100,100,30.05,29.91,15,4,17,0.00
2013-7-27,85.1,70.6,60.9,75.9,65.1,54.5,100,86,38,30.07,30.02,10,4,14,0.00
2013-7-28,73.8,68.3,65.7,73.7,68.3,65.5,100,100,100,30.03,29.97,9,3,11,0.00
2013-7-29,82.6,72.5,65.7,79.0,72.1,65.7,100,99,86,30.04,29.99,10,3,12,0.00
2013-7-30,81.6,70.5,62.5,70.0,64.8,57.0,100,84,48,30.10,30.03,12,4,13,0.00
2013-7-31,81.1,69.5,60.4,69.4,62.2,52.0,100,81,38,30.14,30.06,10,4,12,0.00
2013-8-1,85.1,70.2,60.9,72.0,64.9,55.7,100,86,43,30.07,29.91,12,4,15,0.00
2013-8-2,84.2,70.7,61.7,76.9,66.4,57.2,100,89,46,29.91,29.80,8,3,12,0.00
2013-8-3,77.5,70.2,65.9,69.9,68.1,65.8,100,93,72,29.89,29.80,11,4,15,0.00
2013-8-4,79.3,67.2,58.3,68.3,61.5,54.1,100,84,43,29.89,29.78,10,3,13,0.00
2013-8-5,77.9,64.5,55.2,60.2,52.1,37.4,100,71,26,30.05,29.89,10,3,12,0.00
2013-8-6,78.7,64.6,51.2,64.1,52.7,39.5,100,72,27,30.17,30.05,14,4,16,0.00
2013-8-7,80.3,66.8,56.0,69.3,56.9,46.0,100,75,35,30.20,30.14,15,4,20,0.00
2013-8-8,83.1,71.3,62.6,75.4,68.4,57.1,100,91,66,30.16,30.03,15,4,18,0.00
2013-8-9,73.6,72.0,70.0,73.6,72.0,70.0,100,100,100,30.06,29.78,17,5,24,0.00
2013-8-10,86.2,74.1,63.8,73.0,63.8,50.6,100,74,34,30.01,29.80,9,3,12,0.00
2013-8-11,80.4,67.4,56.3,65.6,56.7,43.0,100,74,31,30.09,30.01,12,4,14,0.00
2013-8-12,83.4,70.1,59.7,69.4,62.4,53.5,100,81,38,30.05,29.94,10,3,12,0.00
2013-8-13,72.9,67.1,62.0,72.0,67.1,62.0,100,100,92,29.94,29.71,8,3,10,0.00
2013-8-14,78.0,66.9,59.2,63.6,56.3,46.2,100,73,35,29.96,29.68,13,4,17,0.00
2013-8-15,81.1,65.5,53.4,61.0,52.5,39.4,100,70,26,30.13,29.97,9,3,13,0.00
2013-8-16,84.0,67.0,55.1,63.7,55.5,44.7,100,72,27,30.20,30.12,8,3,13,0.00
2013-8-17,77.7,65.9,56.7,65.8,61.6,56.7,100,88,50,30.29,30.20,11,3,14,0.00
2013-8-18,83.4,67.9,57.8,70.6,63.1,55.5,100,87,41,30.28,30.10,11,3,13,0.00
2013-8-19,85.4,70.1,58.2,68.5,61.0,49.5,100,77,30,30.10,29.96,7,3,11,0.00
2013-8-20,87.0,73.3,63.1,73.6,66.3,60.1,100,82,43,30.10,29.98,10,3,15,0.00
2013-8-21,88.8,74.8,62.5,71.8,65.6,57.4,100,77,38,30.15,30.04,10,3,12,0.00
2013-8-22,86.6,73.3,65.9,76.3,70.6,65.8,100,93,54,30.05,29.85,12,4,14,0.00
2013-8-23,77.8,68.5,60.0,70.6,64.5,57.0,100,88,55,30.11,29.82,11,4,17,0.00
2013-8-24,73.9,63.1,51.8,65.5,54.7,36.5,100,79,31,30.33,30.11,11,4,14,0.00
2013-8-25,82.0,66.2,52.4,61.2,52.8,41.4,100,68,25,30.36,30.21,12,4,15,0.00
2013-8-26,81.4,68.5,63.9,69.9,64.1,59.0,98,87,52,30.21,29.92,12,4,17,0.00
2013-8-27,72.5,68.2,64.0,72.2,68.2,64.0,100,100,100,29.90,29.85,8,3,11,0.00
2013-8-28,77.5,65.9,61.0,75.3,65.8,60.9,100,100,90,29.98,29.87,10,3,11,0.00
2013-8-29,64.6,62.7,60.2,64.6,62.7,60.2,100,100,100,30.08,29.96,11,3,14,0.00
2013-8-30,79.0,67.9,59.4,72.7,66.3,59.3,100,95,76,30.03,29.85,9,4,13,0.00
2013-8-31,80.5,72.7,66.9,78.9,72.5,66.8,100,99,93,29.86,29.82,10,4,14,0.00
2013-9-1,79.7,72.4,69.1,79.5,72.4,69.1,100,100,100,29.90,29.82,12,4,14,0.00
2013-9-2,82.4,73.4,69.9,80.4,73.3,69.9,100,100,92,29.90,29.74,11,4,13,0.00
2013-9-3,84.6,72.2,65.3,77.5,71.1,65.2,100,97,70,29.82,29.70,8,3,12,0.00
2013-9-4,81.9,68.7,57.9,66.4,59.0,50.0,100,76,35,29.94,29.82,9,3,13,0.00
2013-9-5,67.1,61.0,50.2,65.8,60.4,50.2,100,98,85,30.13,29.88,10,3,13,0.00
2013-9-6,69.5,56.6,47.7,53.6,47.8,37.6,100,77,34,30.25,30.11,12,4,14,0.00
2013-9-7,78.5,62.8,48.4,61.4,51.5,43.6,100,73,30,30.11,29.88,11,4,13,0.00
2013-9-8,78.1,64.8,51.9,65.6,55.8,39.2,100,76,34,30.09,29.75,12,4,22,0.00
2013-9-9,70.6,57.4,46.6,55.8,47.6,36.5,100,75,31,30.25,30.09,9,3,13,0.00
2013-9-10,76.2,65.8,54.4,72.3,65.0,54.4,100,97,87,30.19,30.04,12,4,18,0.00
2013-9-11,94.4,78.4,69.0,79.7,72.9,66.1,100,86,44,30.10,29.96,10,4,16,0.00
2013-9-12,85.4,74.6,68.6,77.4,72.3,68.6,100,93,66,29.99,29.70,14,5,20,0.00
2013-9-13,76.0,67.6,59.2,75.0,67.4,59.2,100,99,86,29.75,29.59,11,3,13,0.00
2013-9-14,71.5,60.6,51.9,63.2,58.2,51.8,100,92,60,30.06,29.75,9,3,11,0.00
2013-9-15,74.6,59.0,48.1,58.6,53.1,48.1,100,84,44,30.17,30.06,10,3,12,0.00
2013-9-16,64.5,57.5,51.0,61.7,55.8,45.5,100,94,72,30.22,30.02,16,3,16,0.00
2013-9-17,61.2,51.2,41.9,47.2,42.3,35.2,100,74,45,30.41,30.22,12,5,21,0.00
2013-9-18,75.2,56.7,42.8,53.3,44.5,30.3,100,71,23,30.33,30.15,11,3,13,0.00
2013-9-19,72.9,59.3,49.9,65.4,53.7,47.4,100,84,43,30.16,30.05,10,3,11,0.00
2013-9-20,72.8,61.0,51.1,64.4,58.0,51.1,100,91,63,30.10,30.02,10,3,12,0.00
2013-9-21,77.3,65.4,53.3,69.4,62.6,53.3,100,92,62,30.05,29.77,12,4,19,0.00
2013-9-22,70.9,64.7,53.2,69.5,62.6,51.9,100,94,58,29.82,29.64,14,4,18,0.00
2013-9-23,63.5,53.0,45.6,51.8,46.6,41.0,100,80,49,30.00,29.82,11,4,15,0.00
2013-9-24,64.1,51.1,40.6,53.4,45.4,40.6,100,84,45,30.00,29.82,10,3,15,0.00
2013-9-25,61.8,52.5,43.2,56.5,50.1,43.0,100,92,63,29.99,29.89,12,3,14,0.00
2013-9-26,63.2,55.4,50.4,56.3,53.3,50.4,100,93,74,30.11,29.98,11,4,16,0.00
2013-9-27,64.4,55.9,47.4,59.8,54.2,47.3,100,94,76,30.26,30.20,10,4,15,0.00
2013-9-28,66.3,55.2,48.2,64.1,54.9,48.2,100,99,90,30.32,30.24,10,3,12,0.00
2013-9-29,64.3,52.8,43.5,58.8,51.8,43.4,100,97,81,30.27,30.12,10,3,12,0.00
2013-9-30,63.8,55.7,47.8,61.2,55.5,47.5,100,99,91,30.12,29.97,10,3,12,0.00
2013-10-1,72.7,56.8,44.6,58.8,51.7,44.6,100,86,48,29.97,29.87,11,3,13,0.00
2013-10-2,79.2,65.0,53.3,65.1,58.7,53.3,100,83,47,29.95,29.83,9,3,15,0.00
2013-10-3,73.7,61.8,53.0,61.8,54.8,45.3,100,82,41,30.09,29.95,10,3,12,0.00
2013-10-4,65.2,56.2,50.6,61.6,55.9,50.4,100,99,83,30.10,30.04,5,2,6,0.00
2013-10-5,66.3,59.3,55.3,64.8,59.0,55.3,100,99,85,30.13,30.06,8,3,11,0.00
2013-10-6,59.0,57.5,55.3,59.0,57.5,55.3,100,100,100,30.22,30.12,13,4,15,0.00
2013-10-7,73.9,67.2,59.0,73.9,67.2,59.0,100,100,100,30.13,29.85,18,5,28,0.00
2013-10-8,64.5,56.1,48.7,60.2,52.0,43.8,100,88,52,30.36,29.90,11,3,17,0.00
2013-10-9,60.7,54.2,48.5,52.0,49.3,45.5,100,84,62,30.45,30.36,12,4,18,0.00
2013-10-10,62.3,55.6,49.2,61.1,55.5,49.1,100,100,96,30.36,30.17,11,3,13,0.00
2013-10-11,62.4,56.3,49.7,62.0,56.3,49.7,100,100,96,30.16,30.11,9,4,12,0.00
2013-10-12,60.7,55.9,51.4,60.7,55.9,51.4,100,100,98,30.38,30.13,14,5,18,0.00
2013-10-13,60.2,52.6,40.2,53.8,50.5,40.2,100,93,75,30.44,30.35,14,4,16,0.00
2013-10-14,58.2,47.3,34.5,54.6,46.2,34.5,100,96,82,30.40,30.27,13,4,14,0.00
2013-10-15,64.1,53.4,43.4,57.4,50.6,43.4,100,92,52,30.28,30.18,10,3,11,0.00
2013-10-16,60.8,54.1,46.9,60.5,54.1,46.8,100,100,100,30.18,29.92,9,3,11,0.00
2013-10-17,69.3,60.0,53.4,66.7,59.5,53.3,100,98,85,29.93,29.75,10,3,13,0.00
2013-10-18,67.6,60.5,46.6,63.4,53.6,42.6,100,81,43,29.92,29.64,11,4,18,0.00
2013-10-19,64.6,52.6,41.1,54.3,45.8,38.6,100,81,40,30.00,29.78,10,3,12,0.00
2013-10-20,60.7,52.5,39.7,53.3,42.6,27.4,100,75,29,30.03,29.71,11,3,16,0.00
2013-10-21,64.5,50.2,37.0,49.8,41.0,33.6,100,76,33,30.13,30.02,9,3,12,0.00
2013-10-22,68.5,55.8,45.5,58.7,49.0,38.9,100,82,36,30.01,29.71,12,4,18,0.00
2013-10-23,52.6,45.6,37.5,45.9,40.9,34.2,100,85,52,29.82,29.61,7,2,11,0.00
2013-10-24,52.2,44.0,37.7,42.3,31.6,20.9,100,66,31,29.90,29.63,13,4,18,0.00
2013-10-25,50.8,40.6,33.1,37.9,31.1,26.0,99,71,42,30.17,29.89,11,3,12,0.00
2013-10-26,54.3,42.4,29.8,42.2,33.0,24.6,100,74,33,30.17,29.90,15,4,24,0.00
2013-10-27,55.7,46.5,40.7,45.7,36.6,26.2,100,72,38,30.08,29.84,11,3,13,0.00
2013-10-28,58.6,45.0,32.2,37.9,32.3,26.7,100,65,33,30.34,30.07,10,4,17,0.00
2013-10-29,49.3,38.6,29.6,39.5,34.2,28.0,100,85,60,30.42,30.34,9,3,12,0.00
2013-10-30,49.4,39.4,29.3,49.1,39.4,29.3,100,100,98,30.38,30.20,7,2,8,0.00
2013-10-31,62.3,50.4,33.5,62.3,50.2,33.5,100,99,95,30.25,29.85,19,4,21,0.00
2013-11-1,70.3,63.7,59.5,69.2,63.3,58.9,100,99,88,29.85,29.50,21,8,37,0.00
2013-11-2,63.3,55.8,50.7,58.9,53.3,46.3,100,92,56,29.73,29.61,9,3,12,0.00
2013-11-3,52.3,42.7,35.7,51.4,41.5,24.8,100,96,62,30.39,29.72,14,4,19,0.00
2013-11-4,41.4,36.1,28.4,33.4,28.1,23.8,100,74,53,30.69,30.39,12,4,16,0.00
2013-11-5,46.6,37.8,29.0,40.4,34.2,28.7,100,88,59,30.70,30.53,13,3,14,0.00
2013-11-6,59.0,49.1,38.1,53.3,45.6,38.0,100,89,55,30.53,30.06,14,4,16,0.00
2013-11-7,63.9,54.2,41.4,63.9,54.2,38.8,100,100,90,30.06,29.68,17,4,21,0.00
2013-11-8,48.8,38.9,32.0,39.8,31.2,23.1,100,76,45,30.10,29.82,15,4,17,0.00
2013-11-9,44.4,37.1,28.3,35.2,25.8,18.9,98,66,37,30.20,30.06,12,3,14,0.00
2013-11-10,54.1,45.0,39.6,50.9,42.0,33.8,100,90,64,30.06,29.74,10,3,18,0.00
2013-11-11,49.8,43.9,35.7,42.2,31.2,21.3,89,63,33,30.10,29.86,14,4,16,0.00
2013-11-12,50.4,36.1,26.5,43.2,29.8,19.8,100,79,50,30.18,29.89,14,4,19,0.00
2013-11-13,26.9,25.7,24.4,22.2,18.4,12.9,86,74,57,30.26,30.17,7,3,9,0.00
2013-11-14,49.1,38.2,26.6,28.8,19.8,14.1,70,50,27,30.20,30.05,12,4,19,0.00
2013-11-15,59.3,46.9,37.0,46.7,26.6,12.3,100,51,17,30.21,30.13,16,4,20,0.00
2013-11-16,56.3,44.4,35.9,44.3,36.7,22.9,100,78,28,30.33,30.19,9,3,15,0.00
2013-11-17,58.5,47.3,33.1,57.2,46.5,33.1,100,97,66,30.32,29.88,2,2,2,0.00
2013-11-18,64.3,57.4,45.9,62.3,52.8,37.6,100,86,45,29.88,29.56,2,2,2,0.00
2013-11-19,46.0,38.6,30.0,39.7,23.9,16.9,98,56,38,30.26,29.67,2,2,2,0.00
2013-11-20,38.0,29.7,26.3,21.6,17.1,11.3,82,60,33,30.61,30.26,2,2,2,0.00
2013-11-21,46.5,35.5,25.8,36.2,27.2,20.3,98,74,36,30.63,30.39,2,2,2,0.00
2013-11-22,45.3,41.4,38.5,45.3,40.4,34.1,100,97,84,30.39,30.16,2,2,2,0.00
2013-11-23,32.5,30.5,28.6,20.2,18.4,16.8,64,60,55,29.81,29.79,2,2,2,0.00
2013-11-24,28.6,23.5,19.1,18.9,4.1,-6.7,79,44,26,30.17,29.78,2,2,2,0.00
2013-11-25,31.3,23.1,15.1,23.6,0.7,-9.5,76,39,17,30.36,30.17,2,2,2,0.00
2013-11-26,44.4,37.9,30.4,44.4,27.3,16.3,100,69,39,30.33,30.05,2,2,2,0.00
2013-11-27,61.8,51.9,37.5,61.8,51.9,37.3,100,100,100,30.05,29.20,2,2,2,0.00
2013-11-28,37.4,30.3,22.7,37.4,19.8,8.1,100,68,39,30.44,29.47,2,2,2,0.00
2013-11-29,32.2,25.7,20.9,21.0,14.8,7.7,88,64,45,30.72,30.44,2,2,2,0.00
2013-11-30,34.4,27.6,19.7,32.1,22.0,13.1,98,81,49,30.76,30.45,2,2,2,0.00
2013-12-1,47.3,41.2,34.2,45.7,40.4,31.8,100,97,87,30.46,29.99,2,2,2,0.00
2013-12-2,40.3,38.1,36.5,40.1,38.1,36.4,100,100,100,29.99,29.92,2,2,2,0.00
2013-12-3,44.2,36.9,30.1,43.3,36.8,30.1,100,100,90,29.94,29.84,2,2,2,0.00
2013-12-4,45.1,33.5,27.3,36.0,30.1,25.4,100,89,49,30.21,29.94,2,2,2,0.00
2013-12-5,54.7,43.2,27.6,54.7,43.2,27.6,100,100,100,30.22,29.92,2,2,2,0.00
2013-12-6,56.7,48.9,35.7,56.7,48.9,35.7,100,100,98,30.13,29.87,2,2,2,0.00
2013-12-7,41.0,33.3,26.3,37.7,30.3,19.5,100,89,62,30.44,30.07,2,2,2,0.00
2013-12-8,32.2,27.5,22.0,26.7,20.1,13.1,100,75,46,30.59,30.44,2,2,2,0.00
2013-12-9,32.5,32.1,29.3,32.2,7.7,0.0,100,25,78,30.49,29.87,2,2,2,0.00
2013-12-10,32.5,32.5,32.5,0.0,0.0,0.0,0,0,100,30.01,29.78,2,2,2,0.00
2013-12-11,32.5,32.5,32.5,0.0,0.0,0.0,0,0,100,30.24,30.01,2,2,2,0.00
2013-12-12,32.5,32.5,32.5,0.0,0.0,0.0,0,0,100,30.28,30.10,2,2,2,0.00
2013-12-13,32.5,30.0,0.0,0.0,0.0,0.0,0,0,100,30.36,30.02,2,2,2,0.00
2013-12-14,70.0,2.0,0.0,0.0,0.0,0.0,0,0,100,30.59,30.15,2,2,2,0.00
2013-12-15,39.0,30.4,24.7,0.0,0.0,0.0,0,0,100,30.14,29.32,2,2,2,0.00
2013-12-16,26.6,23.4,17.0,0.0,0.0,0.0,0,0,100,30.22,29.77,2,2,2,0.00
2013-12-17,31.5,21.0,10.3,0.0,0.0,0.0,0,0,100,30.28,29.89,2,2,2,0.00
2013-12-18,30.4,25.7,21.5,0.0,0.0,0.0,0,0,100,30.09,29.82,2,2,2,0.00
2013-12-19,38.6,30.5,23.3,0.0,0.0,0.0,0,0,100,30.12,29.96,2,2,2,0.00
2013-12-20,46.3,38.0,30.4,0.0,0.0,0.0,0,0,100,30.14,29.93,2,2,2,0.00
2013-12-21,54.9,48.9,41.8,0.0,0.0,0.0,0,0,100,29.99,29.89,2,2,2,0.00
2013-12-22,60.9,50.4,40.1,0.0,0.0,0.0,0,0,100,30.02,29.81,2,2,2,0.00
2013-12-23,41.2,38.1,34.8,0.0,0.0,0.0,0,0,100,30.09,29.95,2,2,2,0.00
2013-12-24,37.5,32.2,27.0,0.0,0.0,0.0,0,0,100,30.19,30.02,2,2,2,0.00
2013-12-25,27.7,19.9,16.2,0.0,0.0,0.0,0,0,100,30.55,30.19,2,2,2,0.00
2013-12-26,36.9,29.1,18.3,0.0,0.0,0.0,0,0,100,30.50,30.07,2,2,2,0.00
2013-12-27,33.9,27.7,23.4,0.0,0.0,0.0,0,0,100,30.28,30.19,2,2,2,0.00
2013-12-28,43.4,33.4,25.2,0.0,0.0,0.0,0,0,100,30.23,30.00,2,2,2,0.00
2013-12-29,42.6,38.0,30.1,0.0,0.0,0.0,0,0,100,30.05,29.34,5,2,46,0.00
2013-12-30,40.0,33.3,22.6,0.0,0.0,0.0,0,0,100,30.15,29.49,2,2,2,0.00
2013-12-31,58.5,22.4,16.8,0.0,0.0,0.0,0,0,100,30.16,30.05,2,2,2,0.00
2014-1-1,28.1,23.1,19.5,0.0,0.0,0.0,0,0,100,30.40,30.20,2,2,2,0.00
2014-1-2,29.7,26.9,23.5,0.0,0.0,0.0,0,0,100,30.37,29.77,2,2,2,0.00